createdAt,value
2023-06-29T00:01:30.930Z,101725.38
2023-06-29T00:03:33.234Z,101728.06
2023-06-29T00:05:36.756Z,101729.06
2023-06-29T00:07:38.331Z,101725.59
2023-06-29T00:09:40.449Z,101722.19
2023-06-29T00:11:41.961Z,101728.63
2023-06-29T00:13:43.531Z,101721.53
2023-06-29T00:15:45.766Z,101721.53
2023-06-29T00:17:48.514Z,101721.63
2023-06-29T00:19:50.289Z,101715.47
2023-06-29T00:21:51.896Z,101713.75
2023-06-29T00:23:54.654Z,101702.91
2023-06-29T00:25:57.510Z,101714.25
2023-06-29T00:27:59.559Z,101705.16
2023-06-29T00:30:01.196Z,101709.47
2023-06-29T00:32:02.780Z,101710.19
2023-06-29T00:34:04.335Z,101712.88
2023-06-29T00:36:06.085Z,101706.66
2023-06-29T00:38:07.563Z,101704.94
2023-06-29T00:40:10.563Z,101718.38
2023-06-29T00:42:12.105Z,101705.16
2023-06-29T00:44:13.596Z,101702.53
2023-06-29T00:46:19.406Z,101702.53
2023-06-29T00:48:20.989Z,101700.81
2023-06-29T00:50:22.952Z,101698.13
2023-06-29T00:52:24.816Z,101696.41
2023-06-29T00:54:26.605Z,101695.53
2023-06-29T00:56:31.903Z,101693.81
2023-06-29T00:58:33.451Z,101691.28
2023-06-29T01:00:35.242Z,101688.66
2023-06-29T01:02:41.233Z,101692.34
2023-06-29T01:04:47.010Z,101681.66
2023-06-29T01:06:56.042Z,101688.00
2023-06-29T01:09:07.037Z,101688.13
2023-06-29T01:11:09.332Z,101686.53
2023-06-29T01:13:11.300Z,101690.22
2023-06-29T01:15:12.958Z,101695.78
2023-06-29T01:17:18.834Z,101695.91
2023-06-29T01:19:24.621Z,101691.72
2023-06-29T01:21:26.977Z,101693.66
2023-06-29T01:23:37.463Z,101684.94
2023-06-29T01:25:39.265Z,101687.59
2023-06-29T01:27:44.705Z,101684.94
2023-06-29T01:29:46.323Z,101682.25
2023-06-29T01:31:48.315Z,101683.13
2023-06-29T01:33:49.927Z,101682.31
2023-06-29T01:36:01.298Z,101681.47
2023-06-29T01:38:13.801Z,101682.47
2023-06-29T01:40:19.808Z,101675.38
2023-06-29T01:42:22.426Z,101670.03
2023-06-29T01:44:24.191Z,101676.25
2023-06-29T01:46:26.385Z,101671.84
2023-06-29T01:48:28.469Z,101661.38
2023-06-29T01:50:30.884Z,101665.72
2023-06-29T01:52:32.606Z,101658.50
2023-06-29T01:54:34.274Z,101661.97
2023-06-29T01:56:35.831Z,101660.16
2023-06-29T01:58:37.344Z,101654.88
2023-06-29T02:00:38.976Z,101656.75
2023-06-29T02:02:40.892Z,101660.44
2023-06-29T02:04:42.426Z,101662.09
2023-06-29T02:06:43.908Z,101658.44
2023-06-29T02:08:46.012Z,101655.69
2023-06-29T02:10:47.520Z,101658.34
2023-06-29T02:12:49.033Z,101656.63
2023-06-29T02:14:50.547Z,101655.81
2023-06-29T02:16:52.701Z,101655.91
2023-06-29T02:18:54.219Z,101652.44
2023-06-29T02:20:55.716Z,101654.22
2023-06-29T02:22:57.237Z,101644.47
2023-06-29T02:24:58.744Z,101652.50
2023-06-29T02:27:00.256Z,101650.69
2023-06-29T02:29:01.739Z,101656.75
2023-06-29T02:31:03.265Z,101652.22
2023-06-29T02:33:04.834Z,101646.88
2023-06-29T02:35:07.275Z,101644.06
2023-06-29T02:37:08.786Z,101643.19
2023-06-29T02:39:10.389Z,101641.59
2023-06-29T02:41:11.875Z,101636.25
2023-06-29T02:43:13.480Z,101640.66
2023-06-29T02:45:15.070Z,101636.97
2023-06-29T02:47:16.548Z,101635.19
2023-06-29T02:49:18.188Z,101629.75
2023-06-29T02:51:19.660Z,101630.69
2023-06-29T02:53:21.132Z,101634.25
2023-06-29T02:55:24.268Z,101628.03
2023-06-29T02:57:25.783Z,101630.69
2023-06-29T02:59:27.314Z,101637.72
2023-06-29T03:01:29.004Z,101633.22
2023-06-29T03:03:30.576Z,101633.22
2023-06-29T03:05:32.099Z,101639.38
2023-06-29T03:07:34.296Z,101629.47
2023-06-29T03:09:35.889Z,101635.69
2023-06-29T03:11:37.375Z,101633.09
2023-06-29T03:13:38.880Z,101625.16
2023-06-29T03:15:40.390Z,101633.22
2023-06-29T03:17:42.057Z,101636.13
2023-06-29T03:19:43.776Z,101626.44
2023-06-29T03:21:45.266Z,101627.22
2023-06-29T03:23:47.301Z,101629.84
2023-06-29T03:25:49.408Z,101628.09
2023-06-29T03:27:50.981Z,101625.56
2023-06-29T03:29:53.559Z,101626.56
2023-06-29T03:31:55.036Z,101629.25
2023-06-29T03:33:59.385Z,101625.56
2023-06-29T03:36:00.910Z,101628.16
2023-06-29T03:38:08.329Z,101620.97
2023-06-29T03:40:10.370Z,101620.88
2023-06-29T03:42:12.001Z,101623.56
2023-06-29T03:44:13.591Z,101618.22
2023-06-29T03:46:15.132Z,101618.13
2023-06-29T03:48:16.685Z,101618.94
2023-06-29T03:50:18.716Z,101623.34
2023-06-29T03:52:21.429Z,101624.19
2023-06-29T03:54:22.997Z,101625.06
2023-06-29T03:56:24.594Z,101616.13
2023-06-29T03:58:26.203Z,101625.78
2023-06-29T04:00:27.856Z,101618.56
2023-06-29T04:02:29.650Z,101614.09
2023-06-29T04:04:31.299Z,101616.78
2023-06-29T04:06:32.857Z,101613.22
2023-06-29T04:08:34.645Z,101613.38
2023-06-29T04:10:36.454Z,101613.31
2023-06-29T04:12:38.017Z,101610.47
2023-06-29T04:14:39.580Z,101621.91
2023-06-29T04:16:41.159Z,101610.28
2023-06-29T04:18:42.735Z,101609.31
2023-06-29T04:20:44.241Z,101615.41
2023-06-29T04:22:45.743Z,101615.41
2023-06-29T04:24:47.338Z,101607.22
2023-06-29T04:26:48.842Z,101608.88
2023-06-29T04:28:50.395Z,101614.16
2023-06-29T04:30:51.954Z,101614.16
2023-06-29T04:32:53.621Z,101611.41
2023-06-29T04:34:55.293Z,101601.59
2023-06-29T04:36:57.696Z,101609.56
2023-06-29T04:38:59.994Z,101611.31
2023-06-29T04:41:05.141Z,101609.50
2023-06-29T04:43:09.883Z,101608.56
2023-06-29T04:45:13.754Z,101608.56
2023-06-29T04:47:15.457Z,101608.56
2023-06-29T04:49:16.966Z,101603.22
2023-06-29T04:51:19.657Z,101604.22
2023-06-29T04:53:21.241Z,101608.69
2023-06-29T04:55:23.926Z,101603.34
2023-06-29T04:57:27.424Z,101605.88
2023-06-29T04:59:30.996Z,101603.22
2023-06-29T05:01:32.519Z,101599.53
2023-06-29T05:03:34.412Z,101597.56
2023-06-29T05:05:35.919Z,101598.44
2023-06-29T05:07:39.105Z,101598.34
2023-06-29T05:09:40.890Z,101601.03
2023-06-29T05:11:42.849Z,101603.56
2023-06-29T05:13:44.354Z,101601.59
2023-06-29T05:15:48.931Z,101597.91
2023-06-29T05:17:50.549Z,101593.34
2023-06-29T05:19:52.128Z,101594.06
2023-06-29T05:21:53.733Z,101598.41
2023-06-29T05:23:55.697Z,101599.25
2023-06-29T05:25:57.280Z,101593.91
2023-06-29T05:27:58.806Z,101591.31
2023-06-29T05:30:00.371Z,101592.19
2023-06-29T05:32:01.964Z,101585.97
2023-06-29T05:34:03.448Z,101579.59
2023-06-29T05:36:05.128Z,101581.41
2023-06-29T05:38:06.724Z,101578.97
2023-06-29T05:40:09.518Z,101582.66
2023-06-29T05:42:11.095Z,101577.16
2023-06-29T05:44:12.603Z,101578.75
2023-06-29T05:46:14.122Z,101572.22
2023-06-29T05:48:15.788Z,101577.22
2023-06-29T05:50:17.507Z,101577.16
2023-06-29T05:52:19.025Z,101576.00
2023-06-29T05:54:20.548Z,101566.78
2023-06-29T05:56:22.037Z,101570.97
2023-06-29T05:58:25.115Z,101567.97
2023-06-29T06:00:26.857Z,101568.44
2023-06-29T06:02:28.525Z,101571.91
2023-06-29T06:04:30.068Z,101576.16
2023-06-29T06:06:31.927Z,101574.91
2023-06-29T06:08:34.151Z,101568.63
2023-06-29T06:10:36.018Z,101579.88
2023-06-29T06:12:37.564Z,101569.69
2023-06-29T06:14:39.298Z,101578.34
2023-06-29T06:16:40.940Z,101577.06
2023-06-29T06:18:42.486Z,101579.25
2023-06-29T06:20:44.176Z,101564.63
2023-06-29T06:22:45.812Z,101571.41
2023-06-29T06:24:47.327Z,101566.84
2023-06-29T06:26:48.824Z,101571.06
2023-06-29T06:28:52.138Z,101568.41
2023-06-29T06:30:55.037Z,101572.72
2023-06-29T06:32:56.730Z,101567.44
2023-06-29T06:34:58.484Z,101568.16
2023-06-29T06:37:00.061Z,101562.69
2023-06-29T06:39:01.598Z,101558.81
2023-06-29T06:41:03.133Z,101564.09
2023-06-29T06:43:04.969Z,101559.59
2023-06-29T06:45:07.533Z,101559.69
2023-06-29T06:47:09.075Z,101562.38
2023-06-29T06:49:10.559Z,101565.03
2023-06-29T06:51:12.049Z,101566.00
2023-06-29T06:53:13.639Z,101563.16
2023-06-29T06:55:15.183Z,101562.81
2023-06-29T06:57:16.713Z,101567.38
2023-06-29T06:59:18.211Z,101563.56
2023-06-29T07:01:23.564Z,101561.59
2023-06-29T07:03:27.195Z,101560.56
2023-06-29T07:05:28.814Z,101573.72
2023-06-29T07:07:30.394Z,101572.88
2023-06-29T07:09:31.966Z,101563.78
2023-06-29T07:11:33.550Z,101569.94
2023-06-29T07:13:35.035Z,101565.16
2023-06-29T07:15:36.566Z,101568.47
2023-06-29T07:17:38.083Z,101560.25
2023-06-29T07:24:08.082Z,101555.53
2023-06-29T07:26:10.162Z,101555.34
2023-06-29T07:28:11.680Z,101557.66
2023-06-29T07:30:13.778Z,101551.34
2023-06-29T07:32:15.290Z,101554.72
2023-06-29T07:34:16.880Z,101556.53
2023-06-29T07:36:18.396Z,101545.34
2023-06-29T07:38:19.963Z,101541.25
2023-06-29T07:40:21.491Z,101539.06
2023-06-29T07:42:38.142Z,101538.56
2023-06-29T07:44:41.376Z,101532.53
2023-06-29T07:46:42.855Z,101542.03
2023-06-29T07:48:44.428Z,101538.59
2023-06-29T07:50:46.029Z,101533.72
2023-06-29T07:52:47.879Z,101530.84
2023-06-29T07:54:50.538Z,101531.00
2023-06-29T07:58:56.496Z,101524.38
2023-06-29T08:00:58.260Z,101526.69
2023-06-29T08:02:59.809Z,101535.31
2023-06-29T08:07:10.069Z,101527.16
2023-06-29T08:09:12.357Z,101519.66
2023-06-29T08:11:15.196Z,101520.88
2023-06-29T08:13:17.306Z,101523.38
2023-06-29T08:15:18.817Z,101518.88
2023-06-29T08:17:20.535Z,101522.50
2023-06-29T08:19:22.319Z,101519.81
2023-06-29T08:21:23.952Z,101526.72
2023-06-29T08:23:25.509Z,101517.69
2023-06-29T08:25:27.062Z,101519.34
2023-06-29T08:27:28.553Z,101521.16
2023-06-29T08:29:30.035Z,101518.56
2023-06-29T08:31:31.632Z,101522.03
2023-06-29T08:33:33.249Z,101516.47
2023-06-29T08:35:34.939Z,101515.31
2023-06-29T08:37:36.526Z,101522.50
2023-06-29T08:39:39.614Z,101521.09
2023-06-29T08:41:41.097Z,101517.69
2023-06-29T08:43:43.102Z,101516.94
2023-06-29T08:45:46.276Z,101517.91
2023-06-29T08:47:53.026Z,101515.31
2023-06-29T08:49:58.016Z,101519.94
2023-06-29T08:52:00.810Z,101519.06
2023-06-29T08:54:02.991Z,101516.28
2023-06-29T08:56:04.967Z,101519.06
2023-06-29T08:58:07.013Z,101517.25
2023-06-29T09:00:09.832Z,101513.69
2023-06-29T09:02:11.837Z,101513.03
2023-06-29T09:04:13.545Z,101521.19
2023-06-29T09:06:16.244Z,101513.41
2023-06-29T09:08:18.469Z,101518.91
2023-06-29T09:10:20.054Z,101512.66
2023-06-29T09:12:21.595Z,101518.13
2023-06-29T09:14:23.870Z,101516.41
2023-06-29T09:16:30.078Z,101515.66
2023-06-29T09:18:33.675Z,101513.81
2023-06-29T09:20:36.187Z,101516.50
2023-06-29T09:22:40.444Z,101512.00
2023-06-29T09:24:57.367Z,101515.66
2023-06-29T09:27:03.996Z,101512.28
2023-06-29T09:29:05.605Z,101514.03
2023-06-29T09:31:09.792Z,101510.16
2023-06-29T09:33:12.849Z,101506.13
2023-06-29T09:35:14.461Z,101506.59
2023-06-29T09:37:17.243Z,101511.19
2023-06-29T09:39:19.702Z,101504.16
2023-06-29T09:41:21.241Z,101505.47
2023-06-29T09:43:27.609Z,101506.81
2023-06-29T09:45:31.699Z,101505.53
2023-06-29T09:49:51.443Z,101497.78
2023-06-29T09:52:04.067Z,101506.31
2023-06-29T09:54:05.770Z,101502.16
2023-06-29T09:56:07.906Z,101499.81
2023-06-29T09:58:09.677Z,101497.84
2023-06-29T10:00:12.833Z,101502.66
2023-06-29T10:02:15.141Z,101499.69
2023-06-29T10:04:16.661Z,101496.53
2023-06-29T10:06:22.836Z,101499.09
2023-06-29T10:08:28.272Z,101498.81
2023-06-29T10:10:34.372Z,101497.84
2023-06-29T10:12:35.945Z,101497.84
2023-06-29T10:14:43.193Z,101495.44
2023-06-29T10:16:50.183Z,101489.84
2023-06-29T10:18:55.437Z,101494.56
2023-06-29T10:20:57.410Z,101488.63
2023-06-29T10:23:02.274Z,101493.44
2023-06-29T10:25:08.966Z,101481.81
2023-06-29T10:27:11.616Z,101478.81
2023-06-29T10:29:13.213Z,101481.41
2023-06-29T10:31:20.144Z,101487.34
2023-06-29T10:33:23.379Z,101483.28
2023-06-29T10:35:27.124Z,101479.97
2023-06-29T10:37:32.819Z,101487.44
2023-06-29T10:39:45.277Z,101480.75
2023-06-29T10:41:48.733Z,101472.38
2023-06-29T10:44:01.520Z,101478.88
2023-06-29T10:46:03.204Z,101475.31
2023-06-29T10:48:07.050Z,101476.38
2023-06-29T10:50:29.532Z,101467.63
2023-06-29T10:52:33.180Z,101470.00
2023-06-29T10:54:34.871Z,101470.09
2023-06-29T10:56:36.398Z,101463.63
2023-06-29T10:58:38.778Z,101470.44
2023-06-29T11:00:41.107Z,101462.59
2023-06-29T11:02:43.217Z,101461.78
2023-06-29T11:04:45.120Z,101459.59
2023-06-29T11:06:46.737Z,101464.41
2023-06-29T11:08:48.902Z,101464.41
2023-06-29T11:10:54.255Z,101463.16
2023-06-29T11:12:56.259Z,101458.91
2023-06-29T11:15:18.251Z,101457.94
2023-06-29T11:17:20.206Z,101459.16
2023-06-29T11:19:27.181Z,101461.19
2023-06-29T11:21:28.767Z,101459.78
2023-06-29T11:23:30.331Z,101461.72
2023-06-29T11:25:31.951Z,101451.16
2023-06-29T11:27:33.676Z,101460.78
2023-06-29T11:29:35.333Z,101457.66
2023-06-29T11:31:37.079Z,101455.59
2023-06-29T11:33:50.784Z,101453.69
2023-06-29T11:35:52.344Z,101453.59
2023-06-29T11:38:01.744Z,101447.75
2023-06-29T11:40:08.966Z,101454.31
2023-06-29T11:42:10.820Z,101450.88
2023-06-29T11:44:15.040Z,101446.44
2023-06-29T11:46:18.646Z,101446.78
2023-06-29T11:48:20.589Z,101439.66
2023-06-29T11:50:23.982Z,101432.22
2023-06-29T11:52:26.134Z,101434.50
2023-06-29T11:54:30.744Z,101421.56
2023-06-29T11:56:39.837Z,101420.41
2023-06-29T11:58:44.214Z,101430.84
2023-06-29T12:00:45.802Z,101424.50
2023-06-29T12:02:47.727Z,101426.22
2023-06-29T12:04:56.519Z,101421.34
2023-06-29T12:06:58.963Z,101418.34
2023-06-29T12:09:00.640Z,101419.63
2023-06-29T12:11:04.692Z,101419.06
2023-06-29T12:13:09.930Z,101416.88
2023-06-29T12:15:16.375Z,101419.69
2023-06-29T12:19:51.460Z,101408.38
2023-06-29T12:22:12.518Z,101404.72
2023-06-29T12:24:17.762Z,101408.38
2023-06-29T12:26:20.481Z,101410.31
2023-06-29T12:28:22.999Z,101405.03
2023-06-29T12:30:24.608Z,101393.94
2023-06-29T12:32:26.123Z,101400.31
2023-06-29T12:34:30.013Z,101397.38
2023-06-29T12:36:31.568Z,101403.53
2023-06-29T12:38:33.054Z,101397.78
2023-06-29T12:40:35.020Z,101397.78
2023-06-29T12:42:38.709Z,101396.97
2023-06-29T12:44:40.552Z,101386.59
2023-06-29T12:46:42.090Z,101388.00
2023-06-29T12:48:46.670Z,101388.19
2023-06-29T12:50:48.561Z,101389.81
2023-06-29T12:52:50.402Z,101392.06
2023-06-29T12:54:53.423Z,101384.94
2023-06-29T12:56:55.011Z,101385.69
2023-06-29T12:58:56.552Z,101379.56
2023-06-29T13:00:58.202Z,101379.16
2023-06-29T13:03:00.219Z,101375.69
2023-06-29T13:05:02.466Z,101379.25
2023-06-29T13:07:04.156Z,101379.03
2023-06-29T13:09:05.761Z,101372.31
2023-06-29T13:11:07.553Z,101379.94
2023-06-29T13:13:09.139Z,101380.34
2023-06-29T13:15:11.336Z,101378.03
2023-06-29T13:17:13.290Z,101375.44
2023-06-29T13:19:14.958Z,101375.19
2023-06-29T13:21:17.096Z,101380.06
2023-06-29T13:23:18.723Z,101375.41
2023-06-29T13:25:22.282Z,101369.91
2023-06-29T13:27:23.784Z,101366.34
2023-06-29T13:29:25.645Z,101370.00
2023-06-29T13:31:27.390Z,101365.00
2023-06-29T13:33:29.017Z,101366.13
2023-06-29T13:35:30.566Z,101365.28
2023-06-29T13:37:32.154Z,101367.88
2023-06-29T13:39:34.266Z,101369.56
2023-06-29T13:41:37.125Z,101362.06
2023-06-29T13:43:38.645Z,101359.50
2023-06-29T13:45:40.217Z,101357.03
2023-06-29T13:47:43.876Z,101361.19
2023-06-29T13:49:45.994Z,101359.81
2023-06-29T13:51:49.401Z,101351.72
2023-06-29T13:53:51.310Z,101351.84
2023-06-29T13:55:52.836Z,101354.53
2023-06-29T13:57:54.362Z,101355.75
2023-06-29T13:59:55.886Z,101352.19
2023-06-29T14:01:57.722Z,101350.34
2023-06-29T14:04:02.066Z,101349.69
2023-06-29T14:06:03.927Z,101344.19
2023-06-29T14:08:05.782Z,101344.97
2023-06-29T14:10:07.788Z,101340.31
2023-06-29T14:12:09.640Z,101346.88
2023-06-29T14:14:11.321Z,101342.69
2023-06-29T14:16:12.886Z,101349.03
2023-06-29T14:18:14.593Z,101344.09
2023-06-29T14:20:16.271Z,101347.31
2023-06-29T14:22:17.798Z,101347.47
2023-06-29T14:24:19.441Z,101357.19
2023-06-29T14:26:22.171Z,101356.91
2023-06-29T14:28:23.714Z,101352.19
2023-06-29T14:30:25.237Z,101368.16
2023-06-29T14:32:26.896Z,101354.91
2023-06-29T14:34:28.503Z,101364.91
2023-06-29T14:36:30.084Z,101362.34
2023-06-29T14:38:32.016Z,101360.91
2023-06-29T14:40:33.554Z,101361.97
2023-06-29T14:42:35.166Z,101352.72
2023-06-29T14:44:36.889Z,101340.00
2023-06-29T14:46:38.550Z,101329.91
2023-06-29T14:48:40.056Z,101327.75
2023-06-29T14:50:41.605Z,101334.72
2023-06-29T14:52:43.128Z,101329.22
2023-06-29T14:54:44.639Z,101323.84
2023-06-29T14:56:46.291Z,101320.50
2023-06-29T14:58:47.860Z,101321.78
2023-06-29T15:00:49.552Z,101320.81
2023-06-29T15:02:51.166Z,101315.56
2023-06-29T15:04:53.145Z,101317.00
2023-06-29T15:06:54.781Z,101320.09
2023-06-29T15:08:56.554Z,101323.53
2023-06-29T15:10:58.098Z,101314.50
2023-06-29T15:12:59.677Z,101324.19
2023-06-29T15:15:02.845Z,101320.22
2023-06-29T15:17:04.681Z,101319.16
2023-06-29T15:19:06.233Z,101320.31
2023-06-29T15:21:07.841Z,101315.91
2023-06-29T15:23:09.483Z,101317.75
2023-06-29T15:25:11.318Z,101313.00
2023-06-29T15:27:12.856Z,101314.84
2023-06-29T15:29:14.363Z,101313.53
2023-06-29T15:31:16.194Z,101316.00
2023-06-29T15:33:18.750Z,101315.44
2023-06-29T15:35:20.379Z,101314.47
2023-06-29T15:37:22.129Z,101310.81
2023-06-29T15:39:23.731Z,101306.63
2023-06-29T15:41:25.353Z,101309.47
2023-06-29T15:43:27.536Z,101314.97
2023-06-29T15:45:29.204Z,101321.72
2023-06-29T15:47:30.887Z,101315.69
2023-06-29T15:49:32.549Z,101313.09
2023-06-29T15:51:34.075Z,101314.38
2023-06-29T15:53:35.589Z,101306.41
2023-06-29T15:55:37.140Z,101307.47
2023-06-29T15:57:38.683Z,101300.47
2023-06-29T15:59:40.224Z,101296.38
2023-06-29T16:01:41.762Z,101300.44
2023-06-29T16:03:43.494Z,101301.53
2023-06-29T16:05:45.632Z,101301.63
2023-06-29T16:07:47.917Z,101290.13
2023-06-29T16:09:49.515Z,101277.47
2023-06-29T16:11:51.082Z,101286.03
2023-06-29T16:13:52.695Z,101289.22
2023-06-29T16:15:54.260Z,101285.75
2023-06-29T16:17:55.778Z,101291.22
2023-06-29T16:19:57.692Z,101286.94
2023-06-29T16:21:59.217Z,101286.25
2023-06-29T16:24:00.703Z,101279.66
2023-06-29T16:26:02.255Z,101276.59
2023-06-29T16:28:03.876Z,101278.59
2023-06-29T16:30:06.331Z,101269.88
2023-06-29T16:32:08.325Z,101262.69
2023-06-29T16:34:10.004Z,101254.66
2023-06-29T16:36:11.676Z,101261.84
2023-06-29T16:38:13.218Z,101255.72
2023-06-29T16:40:14.811Z,101255.13
2023-06-29T16:42:16.450Z,101260.50
2023-06-29T16:44:18.002Z,101257.63
2023-06-29T16:46:19.545Z,101254.38
2023-06-29T16:48:21.071Z,101247.94
2023-06-29T16:50:23.429Z,101251.97
2023-06-29T16:52:24.932Z,101249.19
2023-06-29T16:54:26.498Z,101247.25
2023-06-29T16:56:29.550Z,101255.81
2023-06-29T16:58:31.140Z,101247.66
2023-06-29T17:00:32.685Z,101244.47
2023-06-29T17:02:34.302Z,101248.50
2023-06-29T17:04:35.858Z,101238.06
2023-06-29T17:06:37.398Z,101244.41
2023-06-29T17:08:40.975Z,101245.84
2023-06-29T17:10:42.651Z,101240.28
2023-06-29T17:12:44.316Z,101236.81
2023-06-29T17:14:45.889Z,101234.91
2023-06-29T17:16:47.564Z,101238.06
2023-06-29T17:18:49.159Z,101230.41
2023-06-29T17:20:50.779Z,101239.09
2023-06-29T17:22:52.498Z,101225.88
2023-06-29T17:24:54.582Z,101233.75
2023-06-29T17:26:56.255Z,101234.59
2023-06-29T17:28:58.256Z,101233.75
2023-06-29T17:30:59.985Z,101228.28
2023-06-29T17:33:01.531Z,101233.53
2023-06-29T17:35:03.524Z,101229.59
2023-06-29T17:37:05.341Z,101231.75
2023-06-29T17:39:06.829Z,101227.81
2023-06-29T17:41:09.686Z,101226.09
2023-06-29T17:43:11.914Z,101232.53
2023-06-29T17:45:13.474Z,101222.09
2023-06-29T17:47:15.201Z,101223.91
2023-06-29T17:49:16.714Z,101217.47
2023-06-29T17:51:19.977Z,101226.28
2023-06-29T17:53:21.821Z,101220.94
2023-06-29T17:55:23.382Z,101218.91
2023-06-29T17:57:24.877Z,101228.88
2023-06-29T17:59:26.507Z,101225.53
2023-06-29T18:01:28.161Z,101225.19
2023-06-29T18:03:29.982Z,101235.25
2023-06-29T18:05:31.603Z,101248.78
2023-06-29T18:07:33.278Z,101268.72
2023-06-29T18:09:34.819Z,101271.72
2023-06-29T18:11:36.364Z,101273.72
2023-06-29T18:13:37.935Z,101275.63
2023-06-29T18:15:39.645Z,101285.69
2023-06-29T18:17:41.182Z,101288.00
2023-06-29T18:19:42.724Z,101293.28
2023-06-29T18:21:45.919Z,101291.47
2023-06-29T18:23:47.444Z,101283.44
2023-06-29T18:25:49.016Z,101286.88
2023-06-29T18:27:50.626Z,101289.25
2023-06-29T18:29:52.417Z,101285.91
2023-06-29T18:31:54.431Z,101278.16
2023-06-29T18:33:57.154Z,101272.78
2023-06-29T18:35:58.726Z,101275.47
2023-06-29T18:38:00.538Z,101279.88
2023-06-29T18:40:02.067Z,101270.09
2023-06-29T18:42:03.762Z,101264.66
2023-06-29T18:44:06.078Z,101259.28
2023-06-29T18:46:07.706Z,101253.94
2023-06-29T18:48:09.398Z,101256.41
2023-06-29T18:50:11.372Z,101254.69
2023-06-29T18:52:13.313Z,101254.28
2023-06-29T18:54:14.818Z,101246.59
2023-06-29T18:56:16.360Z,101248.69
2023-06-29T18:58:17.843Z,101252.34
2023-06-29T19:00:19.465Z,101256.94
2023-06-29T19:02:20.963Z,101250.78
2023-06-29T19:04:22.438Z,101245.63
2023-06-29T19:06:24.260Z,101252.13
2023-06-29T19:08:26.195Z,101257.66
2023-06-29T19:10:30.097Z,101258.69
2023-06-29T19:12:31.993Z,101266.94
2023-06-29T19:14:33.650Z,101265.38
2023-06-29T19:16:35.897Z,101266.47
2023-06-29T19:18:37.464Z,101263.84
2023-06-29T19:20:38.993Z,101272.06
2023-06-29T19:22:40.562Z,101263.19
2023-06-29T19:24:42.156Z,101268.63
2023-06-29T19:26:43.849Z,101267.84
2023-06-29T19:28:45.566Z,101267.84
2023-06-29T19:30:47.233Z,101271.56
2023-06-29T19:32:48.786Z,101277.09
2023-06-29T19:34:51.515Z,101277.28
2023-06-29T19:36:53.135Z,101291.63
2023-06-29T19:38:54.650Z,101285.50
2023-06-29T19:40:56.600Z,101279.38
2023-06-29T19:42:58.714Z,101287.56
2023-06-29T19:45:00.289Z,101281.34
2023-06-29T19:47:01.934Z,101279.81
2023-06-29T19:49:03.887Z,101276.28
2023-06-29T19:51:05.571Z,101280.59
2023-06-29T19:53:07.407Z,101283.16
2023-06-29T19:55:10.915Z,101293.09
2023-06-29T19:57:13.293Z,101296.91
2023-06-29T19:59:14.982Z,101294.41
2023-06-29T20:01:16.617Z,101304.25
2023-06-29T20:03:19.383Z,101298.97
2023-06-29T20:05:21.613Z,101298.13
2023-06-29T20:07:23.343Z,101309.69
2023-06-29T20:09:25.149Z,101299.94
2023-06-29T20:11:28.763Z,101311.50
2023-06-29T20:13:30.316Z,101307.19
2023-06-29T20:15:32.014Z,101308.06
2023-06-29T20:17:35.682Z,101312.53
2023-06-29T20:19:37.297Z,101317.81
2023-06-29T20:21:38.829Z,101312.38
2023-06-29T20:23:40.321Z,101310.56
2023-06-29T20:25:41.843Z,101315.91
2023-06-29T20:27:44.907Z,101315.03
2023-06-29T20:29:49.750Z,101312.53
2023-06-29T20:31:51.397Z,101312.53
2023-06-29T20:33:53.366Z,101314.44
2023-06-29T20:35:54.962Z,101318.06
2023-06-29T20:37:56.468Z,101317.25
2023-06-29T20:39:57.973Z,101320.03
2023-06-29T20:41:59.903Z,101324.41
2023-06-29T20:44:01.441Z,101318.28
2023-06-29T20:46:03.058Z,101319.25
2023-06-29T20:48:05.164Z,101312.16
2023-06-29T20:50:07.314Z,101308.72
2023-06-29T20:52:08.841Z,101317.59
2023-06-29T20:54:10.427Z,101306.19
2023-06-29T20:56:11.954Z,101308.34
2023-06-29T20:58:13.585Z,101311.28
2023-06-29T21:00:15.637Z,101307.16
2023-06-29T21:02:18.587Z,101312.56
2023-06-29T21:04:20.377Z,101308.09
2023-06-29T21:06:22.135Z,101302.75
2023-06-29T21:08:23.627Z,101311.81
2023-06-29T21:10:25.196Z,101309.13
2023-06-29T21:12:27.301Z,101306.53
2023-06-29T21:14:28.993Z,101304.81
2023-06-29T21:16:31.036Z,101303.00
2023-06-29T21:18:32.918Z,101295.06
2023-06-29T21:20:35.743Z,101284.53
2023-06-29T21:22:37.774Z,101289.72
2023-06-29T21:24:39.604Z,101278.06
2023-06-29T21:26:41.234Z,101278.91
2023-06-29T21:28:43.521Z,101280.66
2023-06-29T21:30:45.315Z,101284.53
2023-06-29T21:32:47.196Z,101293.66
2023-06-29T21:34:48.969Z,101294.72
2023-06-29T21:36:50.679Z,101300.22
2023-06-29T21:38:52.319Z,101307.56
2023-06-29T21:40:53.893Z,101298.84
2023-06-29T21:42:55.473Z,101303.31
2023-06-29T21:44:56.973Z,101294.69
2023-06-29T21:47:01.297Z,101294.94
2023-06-29T21:49:02.992Z,101301.31
2023-06-29T21:51:04.493Z,101305.09
2023-06-29T21:53:05.986Z,101305.09
2023-06-29T21:55:07.922Z,101298.03
2023-06-29T21:57:09.458Z,101306.03
2023-06-29T21:59:11.008Z,101300.69
2023-06-29T22:01:12.631Z,101303.44
2023-06-29T22:03:14.279Z,101303.53
2023-06-29T22:05:16.087Z,101308.09
2023-06-29T22:07:17.772Z,101309.97
2023-06-29T22:09:19.716Z,101311.97
2023-06-29T22:11:22.172Z,101305.09
2023-06-29T22:13:24.372Z,101307.94
2023-06-29T22:15:25.891Z,101308.25
2023-06-29T22:17:27.935Z,101307.53
2023-06-29T22:19:29.686Z,101309.44
2023-06-29T22:21:31.480Z,101319.56
2023-06-29T22:23:33.274Z,101326.81
2023-06-29T22:25:34.775Z,101324.44
2023-06-29T22:27:37.138Z,101332.19
2023-06-29T22:29:38.646Z,101320.13
2023-06-29T22:31:40.182Z,101322.25
2023-06-29T22:33:41.711Z,101318.00
2023-06-29T22:35:43.511Z,101318.06
2023-06-29T22:37:45.304Z,101315.72
2023-06-29T22:39:49.662Z,101320.09
2023-06-29T22:41:51.170Z,101333.75
2023-06-29T22:43:58.449Z,101327.00
2023-06-29T22:46:00.086Z,101333.53
2023-06-29T22:48:03.261Z,101335.63
2023-06-29T22:50:05.717Z,101332.25
2023-06-29T22:52:07.441Z,101324.16
2023-06-29T22:54:10.075Z,101332.09
2023-06-29T22:56:11.643Z,101335.72
2023-06-29T22:58:20.905Z,101333.19
2023-06-29T23:00:22.928Z,101342.28
2023-06-29T23:02:24.531Z,101344.28
2023-06-29T23:04:26.111Z,101344.44
2023-06-29T23:06:29.298Z,101337.38
2023-06-29T23:08:31.105Z,101340.97
2023-06-29T23:10:32.580Z,101340.25
2023-06-29T23:12:34.063Z,101346.53
2023-06-29T23:14:36.317Z,101346.59
2023-06-29T23:16:37.851Z,101345.97
2023-06-29T23:18:39.598Z,101348.66
2023-06-29T23:20:47.660Z,101337.13
2023-06-29T23:22:49.273Z,101340.88
2023-06-29T23:24:53.788Z,101343.75
2023-06-29T23:26:55.666Z,101343.03
2023-06-29T23:28:57.141Z,101339.56
2023-06-29T23:30:58.795Z,101337.84